sensor_id;sensor_type;location;lat;lon;timestamp;temperature;humidity
23540;DHT22;11947;50.810;4.394;2024-03-23T00:53:48;8.20;99.90
23540;DHT22;11947;50.810;4.394;2024-03-23T00:56:14;8.10;99.90
23540;DHT22;11947;50.810;4.394;2024-03-23T00:58:40;8.20;99.90
23540;DHT22;11947;50.810;4.394;2024-03-23T01:01:05;8.20;99.90
23540;DHT22;11947;50.810;4.394;2024-03-23T01:03:31;8.30;99.90
23540;DHT22;11947;50.810;4.394;2024-03-23T01:06:00;8.20;99.90
23540;DHT22;11947;50.810;4.394;2024-03-23T01:08:26;8.10;99.90
23540;DHT22;11947;50.810;4.394;2024-03-23T01:11:01;8.00;99.90
23540;DHT22;11947;50.810;4.394;2024-03-23T01:13:28;8.00;99.90
23540;DHT22;11947;50.810;4.394;2024-03-23T01:15:54;8.00;99.90
23540;DHT22;11947;50.810;4.394;2024-03-23T01:18:22;8.00;99.90
23540;DHT22;11947;50.810;4.394;2024-03-23T01:20:48;8.10;99.90
23540;DHT22;11947;50.810;4.394;2024-03-23T01:23:14;7.90;99.90
23540;DHT22;11947;50.810;4.394;2024-03-23T01:25:40;7.90;99.90
23540;DHT22;11947;50.810;4.394;2024-03-23T01:28:06;7.90;99.90
23540;DHT22;11947;50.810;4.394;2024-03-23T01:30:34;7.90;99.90
23540;DHT22;11947;50.810;4.394;2024-03-23T01:33:00;8.10;99.90
23540;DHT22;11947;50.810;4.394;2024-03-23T01:35:25;7.90;99.90
23540;DHT22;11947;50.810;4.394;2024-03-23T01:37:51;7.90;99.90
23540;DHT22;11947;50.810;4.394;2024-03-23T01:40:17;7.90;99.90
23540;DHT22;11947;50.810;4.394;2024-03-23T01:42:42;8.10;99.90
23540;DHT22;11947;50.810;4.394;2024-03-23T01:45:09;7.80;99.90
23540;DHT22;11947;50.810;4.394;2024-03-23T01:47:37;7.80;99.90
23540;DHT22;11947;50.810;4.394;2024-03-23T01:50:03;8.00;99.90
23540;DHT22;11947;50.810;4.394;2024-03-23T01:52:29;8.00;99.90
23540;DHT22;11947;50.810;4.394;2024-03-23T01:54:55;8.10;99.90
23540;DHT22;11947;50.810;4.394;2024-03-23T01:57:21;7.80;99.90
23540;DHT22;11947;50.810;4.394;2024-03-23T01:59:48;7.70;99.90
23540;DHT22;11947;50.810;4.394;2024-03-23T02:02:13;7.80;99.90
23540;DHT22;11947;50.810;4.394;2024-03-23T02:04:39;7.70;99.90
23540;DHT22;11947;50.810;4.394;2024-03-23T02:07:08;7.70;99.90
23540;DHT22;11947;50.810;4.394;2024-03-23T02:09:33;7.80;99.90
23540;DHT22;11947;50.810;4.394;2024-03-23T02:12:02;7.80;99.90
23540;DHT22;11947;50.810;4.394;2024-03-23T02:14:28;7.80;99.90
23540;DHT22;11947;50.810;4.394;2024-03-23T02:16:53;7.80;99.90
23540;DHT22;11947;50.810;4.394;2024-03-23T02:19:19;7.80;99.90
23540;DHT22;11947;50.810;4.394;2024-03-23T02:21:45;7.70;99.90
23540;DHT22;11947;50.810;4.394;2024-03-23T02:24:12;7.70;99.90
23540;DHT22;11947;50.810;4.394;2024-03-23T02:26:38;7.70;99.90
23540;DHT22;11947;50.810;4.394;2024-03-23T02:29:03;7.80;99.90
23540;DHT22;11947;50.810;4.394;2024-03-23T02:31:29;7.90;99.90
23540;DHT22;11947;50.810;4.394;2024-03-23T02:33:54;7.90;99.90
23540;DHT22;11947;50.810;4.394;2024-03-23T02:36:20;8.00;99.90
23540;DHT22;11947;50.810;4.394;2024-03-23T02:38:46;7.90;99.90
23540;DHT22;11947;50.810;4.394;2024-03-23T02:41:12;7.90;99.90
23540;DHT22;11947;50.810;4.394;2024-03-23T02:43:39;8.00;99.90
23540;DHT22;11947;50.810;4.394;2024-03-23T02:46:04;7.90;99.90
23540;DHT22;11947;50.810;4.394;2024-03-23T02:48:30;7.80;99.90
23540;DHT22;11947;50.810;4.394;2024-03-23T02:50:56;7.80;99.90
23540;DHT22;11947;50.810;4.394;2024-03-23T02:53:21;7.90;99.90
23540;DHT22;11947;50.810;4.394;2024-03-23T02:55:47;7.80;99.90
23540;DHT22;11947;50.810;4.394;2024-03-23T02:58:12;7.90;99.90
23540;DHT22;11947;50.810;4.394;2024-03-23T03:00:38;7.90;99.90
23540;DHT22;11947;50.810;4.394;2024-03-23T03:03:04;7.90;99.90
23540;DHT22;11947;50.810;4.394;2024-03-23T03:05:30;7.90;99.90
23540;DHT22;11947;50.810;4.394;2024-03-23T03:07:55;8.10;99.90
23540;DHT22;11947;50.810;4.394;2024-03-23T03:10:21;8.00;99.90
23540;DHT22;11947;50.810;4.394;2024-03-23T03:12:46;7.90;99.90
23540;DHT22;11947;50.810;4.394;2024-03-23T03:15:13;7.90;99.90
23540;DHT22;11947;50.810;4.394;2024-03-23T03:17:38;8.00;99.90
23540;DHT22;11947;50.810;4.394;2024-03-23T03:20:04;8.10;99.90
23540;DHT22;11947;50.810;4.394;2024-03-23T03:22:30;8.10;99.90
23540;DHT22;11947;50.810;4.394;2024-03-23T03:24:56;8.00;99.90
23540;DHT22;11947;50.810;4.394;2024-03-23T03:27:21;8.00;99.90
23540;DHT22;11947;50.810;4.394;2024-03-23T03:29:48;8.10;99.90
23540;DHT22;11947;50.810;4.394;2024-03-23T03:32:16;7.90;99.90
23540;DHT22;11947;50.810;4.394;2024-03-23T03:34:42;7.90;99.90
23540;DHT22;11947;50.810;4.394;2024-03-23T03:37:07;7.90;99.90
23540;DHT22;11947;50.810;4.394;2024-03-23T03:39:33;7.90;99.90
23540;DHT22;11947;50.810;4.394;2024-03-23T03:41:59;7.70;99.90
23540;DHT22;11947;50.810;4.394;2024-03-23T03:44:25;7.70;99.90
23540;DHT22;11947;50.810;4.394;2024-03-23T03:46:51;7.60;99.90
23540;DHT22;11947;50.810;4.394;2024-03-23T03:49:17;7.60;99.90
23540;DHT22;11947;50.810;4.394;2024-03-23T03:51:42;7.80;99.90
23540;DHT22;11947;50.810;4.394;2024-03-23T03:54:08;7.80;99.90
23540;DHT22;11947;50.810;4.394;2024-03-23T03:56:34;7.60;99.90
23540;DHT22;11947;50.810;4.394;2024-03-23T03:58:59;7.60;99.90
23540;DHT22;11947;50.810;4.394;2024-03-23T04:01:25;7.40;99.90
23540;DHT22;11947;50.810;4.394;2024-03-23T04:03:50;7.40;99.90
23540;DHT22;11947;50.810;4.394;2024-03-23T04:06:19;7.40;99.90
23540;DHT22;11947;50.810;4.394;2024-03-23T04:08:45;7.50;99.90
23540;DHT22;11947;50.810;4.394;2024-03-23T04:11:11;7.50;99.90
23540;DHT22;11947;50.810;4.394;2024-03-23T04:13:36;7.50;99.90
23540;DHT22;11947;50.810;4.394;2024-03-23T04:16:02;7.40;99.90
23540;DHT22;11947;50.810;4.394;2024-03-23T04:18:28;7.50;99.90
23540;DHT22;11947;50.810;4.394;2024-03-23T04:20:53;7.50;99.90
23540;DHT22;11947;50.810;4.394;2024-03-23T04:23:19;7.50;99.90
23540;DHT22;11947;50.810;4.394;2024-03-23T04:25:44;7.60;99.90
23540;DHT22;11947;50.810;4.394;2024-03-23T04:28:10;7.50;99.90
23540;DHT22;11947;50.810;4.394;2024-03-23T04:30:35;7.50;99.90
23540;DHT22;11947;50.810;4.394;2024-03-23T04:33:02;7.50;99.90
23540;DHT22;11947;50.810;4.394;2024-03-23T04:35:28;7.50;99.90
23540;DHT22;11947;50.810;4.394;2024-03-23T04:37:54;7.50;99.90
23540;DHT22;11947;50.810;4.394;2024-03-23T04:40:21;7.40;99.90
23540;DHT22;11947;50.810;4.394;2024-03-23T04:42:47;7.40;99.90
23540;DHT22;11947;50.810;4.394;2024-03-23T04:45:12;7.40;99.90
23540;DHT22;11947;50.810;4.394;2024-03-23T04:47:38;7.40;99.90
23540;DHT22;11947;50.810;4.394;2024-03-23T04:50:04;7.50;99.90
23540;DHT22;11947;50.810;4.394;2024-03-23T04:52:30;7.40;99.90
23540;DHT22;11947;50.810;4.394;2024-03-23T04:54:56;7.40;99.90
23540;DHT22;11947;50.810;4.394;2024-03-23T04:57:22;7.50;99.90
23540;DHT22;11947;50.810;4.394;2024-03-23T04:59:47;7.40;99.90
23540;DHT22;11947;50.810;4.394;2024-03-23T05:02:14;7.30;99.90
23540;DHT22;11947;50.810;4.394;2024-03-23T05:04:40;7.20;99.90
23540;DHT22;11947;50.810;4.394;2024-03-23T05:07:08;7.10;99.90
23540;DHT22;11947;50.810;4.394;2024-03-23T05:09:34;7.00;99.90
23540;DHT22;11947;50.810;4.394;2024-03-23T05:12:00;6.90;99.90
23540;DHT22;11947;50.810;4.394;2024-03-23T05:14:26;7.00;99.90
23540;DHT22;11947;50.810;4.394;2024-03-23T05:16:55;7.00;99.90
23540;DHT22;11947;50.810;4.394;2024-03-23T05:19:21;6.90;99.90
23540;DHT22;11947;50.810;4.394;2024-03-23T05:21:47;6.90;99.90
23540;DHT22;11947;50.810;4.394;2024-03-23T05:24:13;7.00;99.90
23540;DHT22;11947;50.810;4.394;2024-03-23T05:26:39;7.00;99.90
23540;DHT22;11947;50.810;4.394;2024-03-23T05:29:05;7.00;99.90
23540;DHT22;11947;50.810;4.394;2024-03-23T05:31:32;7.10;99.90
23540;DHT22;11947;50.810;4.394;2024-03-23T05:33:58;7.00;99.90
23540;DHT22;11947;50.810;4.394;2024-03-23T05:36:23;7.10;99.90
23540;DHT22;11947;50.810;4.394;2024-03-23T05:38:50;7.30;99.90
23540;DHT22;11947;50.810;4.394;2024-03-23T05:41:15;7.20;99.90
23540;DHT22;11947;50.810;4.394;2024-03-23T05:43:41;7.10;99.90
23540;DHT22;11947;50.810;4.394;2024-03-23T05:46:07;7.10;99.90
23540;DHT22;11947;50.810;4.394;2024-03-23T05:48:35;7.00;99.90
23540;DHT22;11947;50.810;4.394;2024-03-23T05:51:01;7.20;99.90
23540;DHT22;11947;50.810;4.394;2024-03-23T05:53:27;7.10;99.90
23540;DHT22;11947;50.810;4.394;2024-03-23T05:56:01;7.10;99.90
23540;DHT22;11947;50.810;4.394;2024-03-23T05:58:29;7.10;99.90
23540;DHT22;11947;50.810;4.394;2024-03-23T06:00:58;7.10;99.90
23540;DHT22;11947;50.810;4.394;2024-03-23T06:03:25;7.00;99.90
23540;DHT22;11947;50.810;4.394;2024-03-23T06:05:52;6.90;99.90
23540;DHT22;11947;50.810;4.394;2024-03-23T06:08:18;6.70;99.90
23540;DHT22;11947;50.810;4.394;2024-03-23T06:10:45;6.80;99.90
23540;DHT22;11947;50.810;4.394;2024-03-23T06:13:11;6.90;99.90
23540;DHT22;11947;50.810;4.394;2024-03-23T06:15:37;6.90;99.90
23540;DHT22;11947;50.810;4.394;2024-03-23T06:18:04;7.00;99.90
23540;DHT22;11947;50.810;4.394;2024-03-23T06:20:30;7.10;99.90
23540;DHT22;11947;50.810;4.394;2024-03-23T06:22:56;7.10;99.90
23540;DHT22;11947;50.810;4.394;2024-03-23T06:25:21;7.20;99.90
23540;DHT22;11947;50.810;4.394;2024-03-23T06:27:47;7.10;99.90
23540;DHT22;11947;50.810;4.394;2024-03-23T06:30:13;7.10;99.90
23540;DHT22;11947;50.810;4.394;2024-03-23T06:32:38;7.10;99.90
23540;DHT22;11947;50.810;4.394;2024-03-23T06:35:04;7.20;99.90
23540;DHT22;11947;50.810;4.394;2024-03-23T06:37:35;7.30;99.90
23540;DHT22;11947;50.810;4.394;2024-03-23T06:40:00;7.30;99.90
23540;DHT22;11947;50.810;4.394;2024-03-23T06:42:26;7.30;99.90
23540;DHT22;11947;50.810;4.394;2024-03-23T06:44:52;7.30;99.90
23540;DHT22;11947;50.810;4.394;2024-03-23T06:47:17;7.40;99.90
23540;DHT22;11947;50.810;4.394;2024-03-23T06:49:43;7.30;99.90
23540;DHT22;11947;50.810;4.394;2024-03-23T06:52:08;7.20;99.90
23540;DHT22;11947;50.810;4.394;2024-03-23T06:54:34;7.20;99.90
23540;DHT22;11947;50.810;4.394;2024-03-23T06:57:00;7.20;99.90
23540;DHT22;11947;50.810;4.394;2024-03-23T06:59:25;7.20;99.90
23540;DHT22;11947;50.810;4.394;2024-03-23T07:01:51;7.20;99.90
23540;DHT22;11947;50.810;4.394;2024-03-23T07:04:16;7.20;99.90
23540;DHT22;11947;50.810;4.394;2024-03-23T07:06:43;7.30;99.90
23540;DHT22;11947;50.810;4.394;2024-03-23T07:09:09;7.50;99.90
23540;DHT22;11947;50.810;4.394;2024-03-23T07:11:35;7.60;99.90
23540;DHT22;11947;50.810;4.394;2024-03-23T07:14:01;7.60;99.90
23540;DHT22;11947;50.810;4.394;2024-03-23T07:16:28;7.50;99.90
23540;DHT22;11947;50.810;4.394;2024-03-23T07:18:54;7.40;99.90
23540;DHT22;11947;50.810;4.394;2024-03-23T07:21:19;7.30;99.90
23540;DHT22;11947;50.810;4.394;2024-03-23T07:23:45;7.40;99.90
23540;DHT22;11947;50.810;4.394;2024-03-23T07:26:11;7.20;99.90
23540;DHT22;11947;50.810;4.394;2024-03-23T07:28:37;7.10;99.90
23540;DHT22;11947;50.810;4.394;2024-03-23T07:31:05;7.20;99.90
23540;DHT22;11947;50.810;4.394;2024-03-23T07:33:31;7.00;99.90
23540;DHT22;11947;50.810;4.394;2024-03-23T07:35:57;7.00;99.90
23540;DHT22;11947;50.810;4.394;2024-03-23T07:38:25;7.20;99.90
23540;DHT22;11947;50.810;4.394;2024-03-23T07:40:51;7.40;99.90
23540;DHT22;11947;50.810;4.394;2024-03-23T07:43:21;7.40;99.90
23540;DHT22;11947;50.810;4.394;2024-03-23T07:45:54;7.50;99.90
23540;DHT22;11947;50.810;4.394;2024-03-23T07:48:21;7.70;99.90
23540;DHT22;11947;50.810;4.394;2024-03-23T07:51:07;7.90;99.90
23540;DHT22;11947;50.810;4.394;2024-03-23T07:53:33;7.90;99.90
23540;DHT22;11947;50.810;4.394;2024-03-23T07:56:06;8.00;99.90
23540;DHT22;11947;50.810;4.394;2024-03-23T07:58:33;8.30;99.90
23540;DHT22;11947;50.810;4.394;2024-03-23T08:01:06;8.50;99.90
23540;DHT22;11947;50.810;4.394;2024-03-23T08:03:34;8.50;99.90
23540;DHT22;11947;50.810;4.394;2024-03-23T08:06:14;8.60;99.90
23540;DHT22;11947;50.810;4.394;2024-03-23T08:08:40;8.60;99.90
23540;DHT22;11947;50.810;4.394;2024-03-23T08:11:07;8.80;99.90
23540;DHT22;11947;50.810;4.394;2024-03-23T08:13:33;8.90;99.90
23540;DHT22;11947;50.810;4.394;2024-03-23T08:16:00;8.90;99.90
23540;DHT22;11947;50.810;4.394;2024-03-23T08:18:26;9.00;99.90
23540;DHT22;11947;50.810;4.394;2024-03-23T08:20:56;9.00;99.90
23540;DHT22;11947;50.810;4.394;2024-03-23T08:23:23;9.10;99.90
23540;DHT22;11947;50.810;4.394;2024-03-23T08:25:49;9.00;99.90
23540;DHT22;11947;50.810;4.394;2024-03-23T08:28:14;8.80;99.90
23540;DHT22;11947;50.810;4.394;2024-03-23T08:30:40;8.80;99.90
23540;DHT22;11947;50.810;4.394;2024-03-23T08:33:06;8.80;99.90
23540;DHT22;11947;50.810;4.394;2024-03-23T08:35:31;9.10;99.90
23540;DHT22;11947;50.810;4.394;2024-03-23T08:37:57;9.30;99.90
23540;DHT22;11947;50.810;4.394;2024-03-23T08:40:22;9.10;99.90
23540;DHT22;11947;50.810;4.394;2024-03-23T08:42:48;8.90;99.90
23540;DHT22;11947;50.810;4.394;2024-03-23T08:45:14;8.80;99.90
23540;DHT22;11947;50.810;4.394;2024-03-23T08:47:39;8.80;99.90
23540;DHT22;11947;50.810;4.394;2024-03-23T08:50:05;8.90;99.90
23540;DHT22;11947;50.810;4.394;2024-03-23T08:52:31;9.00;99.90
23540;DHT22;11947;50.810;4.394;2024-03-23T08:54:57;9.10;99.90
23540;DHT22;11947;50.810;4.394;2024-03-23T08:57:23;8.90;99.90
23540;DHT22;11947;50.810;4.394;2024-03-23T08:59:49;8.90;99.90
23540;DHT22;11947;50.810;4.394;2024-03-23T09:02:15;8.90;99.90
23540;DHT22;11947;50.810;4.394;2024-03-23T09:04:40;9.10;99.90
23540;DHT22;11947;50.810;4.394;2024-03-23T09:07:06;9.20;99.90
23540;DHT22;11947;50.810;4.394;2024-03-23T09:09:31;9.30;99.90
23540;DHT22;11947;50.810;4.394;2024-03-23T09:11:57;9.30;99.90
23540;DHT22;11947;50.810;4.394;2024-03-23T09:14:23;9.50;99.90
23540;DHT22;11947;50.810;4.394;2024-03-23T09:16:51;9.60;99.90
23540;DHT22;11947;50.810;4.394;2024-03-23T09:19:17;9.70;99.90
23540;DHT22;11947;50.810;4.394;2024-03-23T09:21:43;9.70;99.90
23540;DHT22;11947;50.810;4.394;2024-03-23T09:24:09;9.90;99.90
23540;DHT22;11947;50.810;4.394;2024-03-23T09:26:34;9.80;99.90
23540;DHT22;11947;50.810;4.394;2024-03-23T09:29:00;9.90;99.90
23540;DHT22;11947;50.810;4.394;2024-03-23T09:31:26;9.90;99.90
23540;DHT22;11947;50.810;4.394;2024-03-23T09:33:51;9.90;99.90
23540;DHT22;11947;50.810;4.394;2024-03-23T09:36:17;10.30;99.90
23540;DHT22;11947;50.810;4.394;2024-03-23T09:38:42;10.80;99.90
23540;DHT22;11947;50.810;4.394;2024-03-23T09:41:08;10.50;99.90
23540;DHT22;11947;50.810;4.394;2024-03-23T09:43:35;10.60;99.90
23540;DHT22;11947;50.810;4.394;2024-03-23T09:46:01;10.70;99.90
23540;DHT22;11947;50.810;4.394;2024-03-23T09:48:28;10.80;99.90
23540;DHT22;11947;50.810;4.394;2024-03-23T09:50:53;11.40;99.90
23540;DHT22;11947;50.810;4.394;2024-03-23T09:53:19;11.40;99.90
23540;DHT22;11947;50.810;4.394;2024-03-23T09:55:45;11.70;99.90
23540;DHT22;11947;50.810;4.394;2024-03-23T09:58:16;12.10;99.90
23540;DHT22;11947;50.810;4.394;2024-03-23T10:00:42;12.80;99.90
23540;DHT22;11947;50.810;4.394;2024-03-23T10:03:08;13.20;99.90
23540;DHT22;11947;50.810;4.394;2024-03-23T10:05:35;14.00;99.90
23540;DHT22;11947;50.810;4.394;2024-03-23T10:08:17;14.20;99.90
23540;DHT22;11947;50.810;4.394;2024-03-23T10:10:44;14.60;99.90
23540;DHT22;11947;50.810;4.394;2024-03-23T10:13:11;15.00;99.90
23540;DHT22;11947;50.810;4.394;2024-03-23T10:15:58;15.10;99.90
23540;DHT22;11947;50.810;4.394;2024-03-23T10:18:24;15.80;99.90
23540;DHT22;11947;50.810;4.394;2024-03-23T10:21:11;14.80;99.90
23540;DHT22;11947;50.810;4.394;2024-03-23T10:23:43;13.90;99.90
23540;DHT22;11947;50.810;4.394;2024-03-23T10:26:19;12.90;99.90
23540;DHT22;11947;50.810;4.394;2024-03-23T10:28:59;12.20;99.90
23540;DHT22;11947;50.810;4.394;2024-03-23T10:31:36;11.40;99.90
23540;DHT22;11947;50.810;4.394;2024-03-23T10:34:03;11.30;99.90
23540;DHT22;11947;50.810;4.394;2024-03-23T10:36:30;11.70;99.90
23540;DHT22;11947;50.810;4.394;2024-03-23T10:38:56;11.50;99.90
23540;DHT22;11947;50.810;4.394;2024-03-23T10:41:28;11.30;99.90
23540;DHT22;11947;50.810;4.394;2024-03-23T10:43:55;13.20;99.90
23540;DHT22;11947;50.810;4.394;2024-03-23T10:46:22;14.90;99.90
23540;DHT22;11947;50.810;4.394;2024-03-23T10:48:49;16.00;99.90
23540;DHT22;11947;50.810;4.394;2024-03-23T10:51:14;16.10;99.90
23540;DHT22;11947;50.810;4.394;2024-03-23T10:53:40;17.50;99.90
23540;DHT22;11947;50.810;4.394;2024-03-23T10:56:07;18.50;99.90
23540;DHT22;11947;50.810;4.394;2024-03-23T10:58:47;19.60;99.90
23540;DHT22;11947;50.810;4.394;2024-03-23T11:01:14;19.30;99.90
23540;DHT22;11947;50.810;4.394;2024-03-23T11:03:45;19.80;99.90
23540;DHT22;11947;50.810;4.394;2024-03-23T11:06:33;20.00;99.90
23540;DHT22;11947;50.810;4.394;2024-03-23T11:08:59;19.30;99.90
23540;DHT22;11947;50.810;4.394;2024-03-23T11:11:25;17.80;99.90
23540;DHT22;11947;50.810;4.394;2024-03-23T11:13:53;18.40;99.90
23540;DHT22;11947;50.810;4.394;2024-03-23T11:16:28;18.70;99.90
23540;DHT22;11947;50.810;4.394;2024-03-23T11:19:35;17.30;99.90
23540;DHT22;11947;50.810;4.394;2024-03-23T11:22:04;15.50;99.90
23540;DHT22;11947;50.810;4.394;2024-03-23T11:24:31;14.90;99.90
23540;DHT22;11947;50.810;4.394;2024-03-23T11:26:56;13.90;99.90
23540;DHT22;11947;50.810;4.394;2024-03-23T11:29:26;13.40;99.90
23540;DHT22;11947;50.810;4.394;2024-03-23T11:31:52;12.60;99.90
23540;DHT22;11947;50.810;4.394;2024-03-23T11:34:19;13.10;99.90
23540;DHT22;11947;50.810;4.394;2024-03-23T11:36:46;13.70;99.90
23540;DHT22;11947;50.810;4.394;2024-03-23T11:39:16;13.50;99.90
23540;DHT22;11947;50.810;4.394;2024-03-23T11:41:53;12.70;99.90
23540;DHT22;11947;50.810;4.394;2024-03-23T11:44:20;13.50;99.90
23540;DHT22;11947;50.810;4.394;2024-03-23T11:46:46;15.60;99.90
23540;DHT22;11947;50.810;4.394;2024-03-23T11:49:26;15.10;99.90
23540;DHT22;11947;50.810;4.394;2024-03-23T11:51:53;13.90;99.90
23540;DHT22;11947;50.810;4.394;2024-03-23T11:54:26;14.30;99.90
23540;DHT22;11947;50.810;4.394;2024-03-23T11:59:38;16.00;99.90
23540;DHT22;11947;50.810;4.394;2024-03-23T12:02:13;15.30;99.90
23540;DHT22;11947;50.810;4.394;2024-03-23T12:04:40;13.90;99.90
23540;DHT22;11947;50.810;4.394;2024-03-23T12:07:24;12.90;99.90
23540;DHT22;11947;50.810;4.394;2024-03-23T12:10:03;12.40;99.90
23540;DHT22;11947;50.810;4.394;2024-03-23T12:12:29;12.20;99.90
23540;DHT22;11947;50.810;4.394;2024-03-23T12:15:05;12.00;99.90
23540;DHT22;11947;50.810;4.394;2024-03-23T12:17:31;12.70;99.90
23540;DHT22;11947;50.810;4.394;2024-03-23T12:19:57;12.70;99.90
23540;DHT22;11947;50.810;4.394;2024-03-23T12:22:24;12.90;99.90
23540;DHT22;11947;50.810;4.394;2024-03-23T12:24:50;13.00;99.90
23540;DHT22;11947;50.810;4.394;2024-03-23T12:27:16;12.60;99.90
23540;DHT22;11947;50.810;4.394;2024-03-23T12:29:43;11.90;99.90
23540;DHT22;11947;50.810;4.394;2024-03-23T12:32:11;11.10;99.90
23540;DHT22;11947;50.810;4.394;2024-03-23T12:34:37;10.80;99.90
23540;DHT22;11947;50.810;4.394;2024-03-23T12:37:03;10.40;99.90
23540;DHT22;11947;50.810;4.394;2024-03-23T12:39:28;10.20;99.90
23540;DHT22;11947;50.810;4.394;2024-03-23T12:41:55;10.20;99.90
23540;DHT22;11947;50.810;4.394;2024-03-23T12:44:21;13.10;99.90
23540;DHT22;11947;50.810;4.394;2024-03-23T12:46:47;16.40;99.90
23540;DHT22;11947;50.810;4.394;2024-03-23T12:49:12;19.10;99.90
23540;DHT22;11947;50.810;4.394;2024-03-23T12:51:39;21.50;99.90
23540;DHT22;11947;50.810;4.394;2024-03-23T12:54:04;23.20;99.90
23540;DHT22;11947;50.810;4.394;2024-03-23T12:56:30;25.00;99.90
23540;DHT22;11947;50.810;4.394;2024-03-23T12:58:56;26.10;99.90
23540;DHT22;11947;50.810;4.394;2024-03-23T13:01:25;26.00;99.90
23540;DHT22;11947;50.810;4.394;2024-03-23T13:03:51;25.10;99.90
23540;DHT22;11947;50.810;4.394;2024-03-23T13:06:18;25.10;99.90
23540;DHT22;11947;50.810;4.394;2024-03-23T13:08:47;25.20;98.50
23540;DHT22;11947;50.810;4.394;2024-03-23T13:11:15;25.50;98.20
23540;DHT22;11947;50.810;4.394;2024-03-23T13:13:41;25.70;99.50
23540;DHT22;11947;50.810;4.394;2024-03-23T13:16:07;26.00;96.60
23540;DHT22;11947;50.810;4.394;2024-03-23T13:18:33;25.80;95.70
23540;DHT22;11947;50.810;4.394;2024-03-23T13:20:59;24.20;94.40
23540;DHT22;11947;50.810;4.394;2024-03-23T13:23:25;24.00;95.70
23540;DHT22;11947;50.810;4.394;2024-03-23T13:25:55;23.00;96.80
23540;DHT22;11947;50.810;4.394;2024-03-23T13:28:24;21.70;96.80
23540;DHT22;11947;50.810;4.394;2024-03-23T13:30:54;21.30;96.60
23540;DHT22;11947;50.810;4.394;2024-03-23T13:33:20;22.70;96.40
23540;DHT22;11947;50.810;4.394;2024-03-23T13:35:50;24.20;96.40
23540;DHT22;11947;50.810;4.394;2024-03-23T13:38:16;24.40;94.40
23540;DHT22;11947;50.810;4.394;2024-03-23T13:40:53;24.70;93.30
23540;DHT22;11947;50.810;4.394;2024-03-23T13:43:19;23.90;94.00
23540;DHT22;11947;50.810;4.394;2024-03-23T13:45:46;24.20;96.70
23540;DHT22;11947;50.810;4.394;2024-03-23T13:48:12;23.10;95.00
23540;DHT22;11947;50.810;4.394;2024-03-23T13:50:37;22.90;95.10
23540;DHT22;11947;50.810;4.394;2024-03-23T13:53:03;22.70;94.90
23540;DHT22;11947;50.810;4.394;2024-03-23T13:55:29;22.10;95.70
23540;DHT22;11947;50.810;4.394;2024-03-23T13:57:54;22.30;96.10
23540;DHT22;11947;50.810;4.394;2024-03-23T14:00:20;22.50;97.50
23540;DHT22;11947;50.810;4.394;2024-03-23T14:02:46;22.30;96.30
23540;DHT22;11947;50.810;4.394;2024-03-23T14:05:11;22.10;96.90
23540;DHT22;11947;50.810;4.394;2024-03-23T14:07:37;21.90;96.20
23540;DHT22;11947;50.810;4.394;2024-03-23T14:10:03;21.10;95.80
23540;DHT22;11947;50.810;4.394;2024-03-23T14:12:32;22.10;97.50
23540;DHT22;11947;50.810;4.394;2024-03-23T14:14:57;22.30;95.30
23540;DHT22;11947;50.810;4.394;2024-03-23T14:17:23;23.00;94.80
23540;DHT22;11947;50.810;4.394;2024-03-23T14:19:48;23.10;94.60
23540;DHT22;11947;50.810;4.394;2024-03-23T14:22:15;22.50;95.10
23540;DHT22;11947;50.810;4.394;2024-03-23T14:24:44;22.30;96.40
23540;DHT22;11947;50.810;4.394;2024-03-23T14:27:10;22.30;95.00
23540;DHT22;11947;50.810;4.394;2024-03-23T14:29:36;22.60;95.40
23540;DHT22;11947;50.810;4.394;2024-03-23T14:32:01;22.40;94.80
23540;DHT22;11947;50.810;4.394;2024-03-23T14:34:27;22.70;95.30
23540;DHT22;11947;50.810;4.394;2024-03-23T14:36:55;22.80;95.80
23540;DHT22;11947;50.810;4.394;2024-03-23T14:39:24;22.90;96.70
23540;DHT22;11947;50.810;4.394;2024-03-23T14:41:50;23.20;95.70
23540;DHT22;11947;50.810;4.394;2024-03-23T14:44:16;24.10;95.90
23540;DHT22;11947;50.810;4.394;2024-03-23T14:46:42;24.10;93.40
23540;DHT22;11947;50.810;4.394;2024-03-23T14:49:08;24.30;93.10
23540;DHT22;11947;50.810;4.394;2024-03-23T14:51:34;24.10;93.50
23540;DHT22;11947;50.810;4.394;2024-03-23T14:54:00;23.50;94.00
23540;DHT22;11947;50.810;4.394;2024-03-23T14:56:25;23.20;94.50
23540;DHT22;11947;50.810;4.394;2024-03-23T14:58:54;23.50;93.80
23540;DHT22;11947;50.810;4.394;2024-03-23T15:01:21;24.00;94.10
23540;DHT22;11947;50.810;4.394;2024-03-23T15:03:47;23.10;94.50
23540;DHT22;11947;50.810;4.394;2024-03-23T15:06:13;23.00;94.70
23540;DHT22;11947;50.810;4.394;2024-03-23T15:08:39;22.30;94.70
23540;DHT22;11947;50.810;4.394;2024-03-23T15:11:06;22.40;94.60
23540;DHT22;11947;50.810;4.394;2024-03-23T15:13:35;22.20;95.70
23540;DHT22;11947;50.810;4.394;2024-03-23T15:16:01;21.70;95.20
23540;DHT22;11947;50.810;4.394;2024-03-23T15:18:29;21.60;96.40
23540;DHT22;11947;50.810;4.394;2024-03-23T15:20:56;19.90;98.10
23540;DHT22;11947;50.810;4.394;2024-03-23T15:23:22;19.00;98.80
23540;DHT22;11947;50.810;4.394;2024-03-23T15:26:15;17.90;98.80
23540;DHT22;11947;50.810;4.394;2024-03-23T15:28:41;16.40;99.90
23540;DHT22;11947;50.810;4.394;2024-03-23T15:31:19;15.70;99.90
23540;DHT22;11947;50.810;4.394;2024-03-23T15:33:45;14.80;99.90
23540;DHT22;11947;50.810;4.394;2024-03-23T15:36:11;14.10;99.90
23540;DHT22;11947;50.810;4.394;2024-03-23T15:38:37;13.40;99.90
23540;DHT22;11947;50.810;4.394;2024-03-23T15:41:04;13.00;99.90
23540;DHT22;11947;50.810;4.394;2024-03-23T15:43:30;12.80;99.90
23540;DHT22;11947;50.810;4.394;2024-03-23T15:45:58;12.70;99.90
23540;DHT22;11947;50.810;4.394;2024-03-23T15:48:27;12.80;99.90
23540;DHT22;11947;50.810;4.394;2024-03-23T15:50:54;12.60;99.90
23540;DHT22;11947;50.810;4.394;2024-03-23T15:53:20;12.50;99.90
23540;DHT22;11947;50.810;4.394;2024-03-23T15:55:57;12.50;99.90
23540;DHT22;11947;50.810;4.394;2024-03-23T15:58:26;12.50;99.90
23540;DHT22;11947;50.810;4.394;2024-03-23T16:00:56;12.60;99.90
23540;DHT22;11947;50.810;4.394;2024-03-23T16:03:22;12.40;99.90
23540;DHT22;11947;50.810;4.394;2024-03-23T16:05:55;12.40;99.90
23540;DHT22;11947;50.810;4.394;2024-03-23T16:08:22;12.40;99.90
23540;DHT22;11947;50.810;4.394;2024-03-23T16:10:48;12.20;99.90
23540;DHT22;11947;50.810;4.394;2024-03-23T16:13:14;12.10;99.90
23540;DHT22;11947;50.810;4.394;2024-03-23T16:15:40;11.90;99.90
23540;DHT22;11947;50.810;4.394;2024-03-23T16:18:06;11.80;99.90
23540;DHT22;11947;50.810;4.394;2024-03-23T16:20:32;11.60;99.90
23540;DHT22;11947;50.810;4.394;2024-03-23T16:23:01;11.60;99.90
23540;DHT22;11947;50.810;4.394;2024-03-23T16:25:26;11.60;99.90
23540;DHT22;11947;50.810;4.394;2024-03-23T16:27:53;11.50;99.90
23540;DHT22;11947;50.810;4.394;2024-03-23T16:30:19;11.50;99.90
23540;DHT22;11947;50.810;4.394;2024-03-23T16:32:48;11.40;99.90
23540;DHT22;11947;50.810;4.394;2024-03-23T16:35:14;11.20;99.90